• Join FlightAware (Why Join?)
  • Login
  • US Flag 
08:03AM EDT


 

Airport Tracker/Info


-or-


 

Live Flight TrackerFlight Track Log ✈ ASQ6159 ✈ 27-Apr-2013 ✈ KLEX - KORD

Flight Track Log - Related Links

Times and Time Zones

All times are in EDT time to prevent confusion due to time zone crossing. See the ASQ6159 flight status page for this flight to view local times or setup timezone preferences in your user account.

Time Position Orientation Groundspeed Altitude Reporting Facility
EDT Latitude Longitude Course Direction KTS MPH feet Rate Location/Type
10:48AM 38.0156 -84.6319 256° West 163 188 2,100  Level Indianapolis Center
10:49AM 37.9956 -84.6992 249° West 204 235 3,600 1,860 Climbing Indianapolis Center
10:50AM 37.9216 -84.5852 247° West  Level FlightAware Approximate
10:50AM 38.0292 -84.7708 301° West 236 272 6,000  Level Indianapolis Center
10:51AM 37.9049 -84.6803 252° West  Level FlightAware Approximate
10:51AM 38.0983 -84.8031 340° North 258 297 8,500  Level Indianapolis Center
10:52AM 37.8784 -84.7716 218° Southwest  Level FlightAware Approximate
10:52AM 38.1728 -84.8275 346° North 273 314 10,500  Level Indianapolis Center
10:53AM 37.8512 -84.8605 256° West  Level FlightAware Approximate
10:53AM 38.2536 -84.8583 343° North 293 337 11,600  Level Indianapolis Center
10:54AM 38.3611 -84.8950 345° North 336 387 13,000 1,200 Climbing Indianapolis Center
10:55AM 38.4553 -84.9294 344° North 349 402 14,100 1,140 Climbing Indianapolis Center
10:56AM 38.5525 -84.9631 345° North 359 413 15,400 1,260 Climbing Indianapolis Center
10:57AM 38.6425 -84.9958 344° North 360 414 16,700 1,200 Climbing Indianapolis Center
10:58AM 38.7403 -85.0303 345° North 362 417 17,900 1,380 Climbing Indianapolis Center
10:59AM 38.8536 -85.0722 344° North 361 415 19,600 1,560 Climbing Indianapolis Center
11:00AM 38.9497 -85.1075 344° North 358 412 21,100 1,380 Climbing Indianapolis Center
11:01AM 39.0478 -85.1417 345° North 362 417 22,500 1,320 Climbing Indianapolis Center
11:02AM 39.1442 -85.1778 344° North 359 413 23,900 1,140 Climbing Indianapolis Center
11:03AM 39.2428 -85.2139 344° North 365 420 24,900 900 Climbing Indianapolis Center
11:04AM 39.3442 -85.2497 345° North 373 429 25,800 480 Climbing Indianapolis Center
11:05AM 39.4469 -85.2886 344° North 380 437 26,000 60 Climbing Indianapolis Center
11:06AM 39.5558 -85.3278 345° North 400 460 26,000  Level Indianapolis Center
11:07AM 39.6692 -85.3703 344° North 419 482 26,000  Level Indianapolis Center
11:08AM 39.8036 -85.4206 344° North 428 493 26,000  Level Indianapolis Center
11:09AM 39.9192 -85.4631 344° North 430 495 26,000  Level Indianapolis Center
11:10AM 40.0342 -85.5064 344° North 430 495 26,000  Level Indianapolis Center
11:11AM 40.1311 -85.5908 326° Northwest 425 489 26,000 60 Level Indianapolis Center
11:11AM 40.1578 -85.6228 318° Northwest 418 481 26,100 -720 Climbing Chicago Center
11:13AM 40.2319 -85.7172 316° Northwest 377 434 25,100 -540 Descending Chicago Center
11:14AM 40.3058 -85.8103 316° Northwest 369 425 25,000 -180 Descending Chicago Center
11:15AM 40.3828 -85.9089 316° Northwest 383 441 24,800 -540 Descending Chicago Center
11:16AM 40.4589 -86.0044 316° Northwest 379 436 23,900 -600 Descending Chicago Center
11:17AM 40.5469 -86.1178 316° Northwest 381 438 23,600 -480 Descending Chicago Center
11:18AM 40.6303 -86.2269 315° West 418 481 23,000 -300 Descending Chicago Center
11:19AM 40.7194 -86.3428 315° West 430 495 23,000  Level Chicago Center
11:20AM 40.8058 -86.4550 316° Northwest 434 499 23,000  Level Chicago Center
11:21AM 40.8919 -86.5678 315° West 436 502 23,000 -540 Level Chicago Center
11:22AM 40.9789 -86.6811 315° West 435 501 21,900 -1,860 Descending Chicago Center
11:23AM 41.0706 -86.8014 315° West 431 496 19,200 -2,400 Descending Chicago Center
11:24AM 41.1500 -86.9069 315° West 411 473 17,000 -2,400 Descending Chicago Center
11:25AM 41.2253 -87.0061 315° West 388 447 14,400 -2,460 Descending Chicago Center
11:26AM 41.2961 -87.1025 314° West 369 425 12,000 -1,620 Descending Chicago Center
11:27AM 41.3689 -87.1986 315° West 371 427 11,100 -720 Descending Chicago Center
11:27AM 41.4167 -87.2500 321° Northwest 362 417 11,000  Descending Chicago TRACON
11:28AM 41.4833 -87.3333 317° Northwest 353 406 11,100  Climbing Chicago TRACON
11:29AM 41.5308 -87.3903 318° Northwest 355 409 11,000 -60 Descending Chicago Center
11:30AM 41.6067 -87.4747 320° Northwest 360 414 11,000 -300 Level Chicago Center
11:31AM 41.6819 -87.5561 321° Northwest 353 406 10,400 -1,140 Descending Chicago Center
11:32AM 41.7500 -87.6333 320° Northwest 292 336 8,800 -1,800 Descending Chicago TRACON
11:33AM 41.8000 -87.7000 315° West 288 331 7,100 -900 Descending Chicago TRACON
11:34AM 41.8833 -87.7167 352° North 294 338 7,000 -60 Descending Chicago TRACON
11:35AM 41.9667 -87.7167 360° North 258 297 7,000 -540 Level Chicago TRACON
11:36AM 42.0167 -87.7000 14° North 246 283 6,000 -1,260 Descending Chicago TRACON
11:37AM 42.0833 -87.6833 11° North 239 275 4,700 -1,080 Descending Chicago TRACON
11:38AM 42.1167 -87.7333 312° West 198 228 4,000 -720 Descending Chicago TRACON
11:39AM 42.1000 -87.7833 246° West 179 206 3,300 -660 Descending Chicago TRACON